Time;durP1;ratioP1;P1;durP2;ratioP2;P2;SDS_P1;SDS_P2;PMS_P1;PMS_P2;Temp;Humidity;BMP_temperature;BMP_pressure;BME280_temperature;BME280_humidity;BME280_pressure;Samples;Min_cycle;Max_cycle;Signal;HPM_P1;HPM_P2
2023/08/09 00:02:04;;;;;;;4.00;0.60;;;;;;;14.34;79.12;100025.11;110334;1276;22158;-79
2023/08/09 00:04:35;;;;;;;3.60;0.60;;;;;;;14.33;79.07;100022.26;110388;1267;22179;-79
2023/08/09 00:07:06;;;;;;;5.10;0.70;;;;;;;14.33;79.03;100027.58;110352;1269;23394;-79
2023/08/09 00:09:37;;;;;;;2.40;0.60;;;;;;;14.32;79.12;100025.88;110312;1270;22905;-79
2023/08/09 00:12:08;;;;;;;4.90;0.60;;;;;;;14.33;79.12;100031.45;110379;1276;22194;-79
2023/08/09 00:14:39;;;;;;;5.50;0.60;;;;;;;14.33;79.35;100033.64;110367;1276;22954;-79
2023/08/09 00:17:10;;;;;;;4.40;0.80;;;;;;;14.34;79.26;100034.87;110339;1276;22305;-80
2023/08/09 00:19:40;;;;;;;5.30;0.60;;;;;;;14.34;79.34;100038.80;110378;1273;22305;-79
2023/08/09 00:22:11;;;;;;;4.00;0.70;;;;;;;14.35;79.39;100041.35;110334;1276;22193;-79
2023/08/09 00:24:42;;;;;;;4.80;0.80;;;;;;;14.34;79.33;100045.79;110350;1276;22145;-79
2023/08/09 00:27:13;;;;;;;3.20;0.60;;;;;;;14.34;79.39;100052.13;110311;1266;22167;-79
2023/08/09 00:29:44;;;;;;;6.20;0.60;;;;;;;14.34;79.33;100056.16;110346;1276;22186;-79
2023/08/09 00:32:15;;;;;;;3.00;0.50;;;;;;;14.32;79.39;100058.52;110353;1276;22250;-79
2023/08/09 00:34:46;;;;;;;4.80;0.70;;;;;;;14.31;79.44;100056.31;110334;1276;22351;-78
2023/08/09 00:37:16;;;;;;;7.70;0.70;;;;;;;14.30;79.75;100054.98;110317;1276;22228;-77
2023/08/09 00:39:48;;;;;;;4.20;0.70;;;;;;;14.30;80.26;100051.71;110315;1276;22221;-80
2023/08/09 00:42:19;;;;;;;6.60;0.90;;;;;;;14.28;80.63;100044.35;110380;1276;22180;-79
2023/08/09 00:44:49;;;;;;;4.70;0.80;;;;;;;14.28;80.91;100040.15;110381;1273;23036;-80
2023/08/09 00:47:21;;;;;;;6.10;0.70;;;;;;;14.27;80.99;100047.14;110380;1276;22169;-79
2023/08/09 00:49:52;;;;;;;3.90;0.80;;;;;;;14.27;81.20;100043.96;110342;1276;22461;-79
2023/08/09 00:52:22;;;;;;;3.60;0.70;;;;;;;14.27;81.47;100043.71;110373;1272;22175;-80
2023/08/09 00:54:54;;;;;;;4.60;0.90;;;;;;;14.28;81.70;100046.95;110348;1276;22146;-80
2023/08/09 00:57:24;;;;;;;5.10;0.80;;;;;;;14.28;82.00;100046.60;110368;1276;22220;-80
2023/08/09 00:59:55;;;;;;;2.90;0.70;;;;;;;14.28;81.95;100048.73;110341;1276;22141;-80
2023/08/09 01:02:26;;;;;;;6.40;1.00;;;;;;;14.28;82.27;100052.51;110365;1276;22167;-80
2023/08/09 01:04:58;;;;;;;4.50;0.80;;;;;;;14.27;82.14;100055.62;110333;1276;22889;-80
2023/08/09 01:07:33;;;;;;;4.00;0.70;;;;;;;14.26;82.16;100049.94;110356;1276;22188;-80
2023/08/09 01:10:12;;;;;;;7.60;0.90;;;;;;;14.27;82.33;100051.68;110354;1269;22110;-80
2023/08/09 01:12:48;;;;;;;5.10;0.70;;;;;;;14.27;82.32;100056.23;110335;1270;22400;-79
2023/08/09 01:15:21;;;;;;;4.40;0.80;;;;;;;14.27;82.47;100050.71;110340;1273;22215;-80
2023/08/09 01:17:55;;;;;;;2.60;0.50;;;;;;;14.28;82.58;100053.68;110330;1276;23693;-79
2023/08/09 01:20:27;;;;;;;4.60;0.60;;;;;;;14.28;82.74;100059.15;109297;1270;23041;-79
2023/08/09 01:23:03;;;;;;;4.40;0.90;;;;;;;14.27;82.87;100061.09;108639;1265;22532;-80
2023/08/09 01:25:35;;;;;;;5.60;0.90;;;;;;;14.27;83.04;100060.06;108148;1276;23850;-79
2023/08/09 01:28:06;;;;;;;5.80;0.80;;;;;;;14.27;82.95;100060.88;108202;1270;22501;-79
2023/08/09 01:30:37;;;;;;;4.10;0.90;;;;;;;14.27;83.03;100060.57;108164;1276;22753;-79
2023/08/09 01:33:08;;;;;;;2.90;0.70;;;;;;;14.26;83.19;100062.05;108246;1276;22544;-79
2023/08/09 01:35:45;;;;;;;2.20;0.70;;;;;;;14.27;83.10;100058.52;108188;1276;25243;-78
2023/08/09 01:38:24;;;;;;;2.70;0.70;;;;;;;14.26;83.22;100058.27;108165;1276;22633;-78
2023/08/09 01:40:56;;;;;;;6.00;0.80;;;;;;;14.24;83.27;100056.42;108155;1269;22557;-79
2023/08/09 01:43:30;;;;;;;3.10;0.60;;;;;;;14.25;83.42;100054.44;108066;1267;22692;-79
2023/08/09 01:46:02;;;;;;;3.90;0.90;;;;;;;14.24;83.28;100050.52;108039;1276;22533;-78
2023/08/09 01:48:33;;;;;;;4.20;0.80;;;;;;;14.24;83.42;100049.23;108009;1276;25307;-79
2023/08/09 01:51:04;;;;;;;3.70;0.70;;;;;;;14.25;83.63;100052.61;108030;1276;22520;-79
2023/08/09 01:53:34;;;;;;;4.00;0.60;;;;;;;14.26;83.91;100048.92;107925;1276;22532;-78
2023/08/09 01:56:06;;;;;;;5.10;0.80;;;;;;;14.26;84.27;100046.17;108055;1263;22595;-79
2023/08/09 01:58:37;;;;;;;3.90;0.80;;;;;;;14.27;84.28;100042.85;108013;1276;23249;-79
2023/08/09 02:01:08;;;;;;;5.00;0.80;;;;;;;14.25;84.48;100044.38;108135;1276;22547;-79
2023/08/09 02:03:39;;;;;;;6.00;0.80;;;;;;;14.25;84.22;100046.84;108140;1273;24202;-79
2023/08/09 02:06:09;;;;;;;5.30;0.90;;;;;;;14.25;84.33;100042.30;108122;1276;23434;-79
2023/08/09 02:08:42;;;;;;;7.70;1.10;;;;;;;14.23;84.54;100039.64;108035;1267;23432;-79
2023/08/09 02:11:13;;;;;;;6.50;1.20;;;;;;;14.21;84.50;100041.62;108031;1266;24150;-78
2023/08/09 02:13:44;;;;;;;8.50;1.20;;;;;;;14.19;84.30;100039.28;107967;1276;22521;-79
2023/08/09 02:16:15;;;;;;;5.90;0.80;;;;;;;14.20;84.66;100038.31;108007;1276;22532;-78
2023/08/09 02:18:46;;;;;;;3.60;0.70;;;;;;;14.21;84.47;100039.84;108101;1276;22502;-79
2023/08/09 02:21:17;;;;;;;3.80;1.00;;;;;;;14.23;84.66;100036.98;108000;1276;25453;-78
2023/08/09 02:23:48;;;;;;;4.90;0.80;;;;;;;14.24;84.71;100040.39;107976;1276;22524;-79
2023/08/09 02:26:18;;;;;;;5.70;0.90;;;;;;;14.24;84.68;100039.94;108094;1276;22544;-78
2023/08/09 02:28:50;;;;;;;4.90;0.80;;;;;;;14.24;84.64;100040.34;108145;1276;22595;-79
2023/08/09 02:31:21;;;;;;;6.40;1.10;;;;;;;14.24;84.54;100039.73;108087;1256;24389;-78
2023/08/09 02:33:51;;;;;;;5.90;0.80;;;;;;;14.25;84.75;100039.13;104050;1276;5413497;-78
2023/08/09 02:36:22;;;;;;;5.70;0.90;;;;;;;14.24;84.70;100038.20;108089;1276;22638;-78
2023/08/09 02:38:53;;;;;;;7.50;0.90;;;;;;;14.23;84.66;100035.23;108163;1269;25411;-79
2023/08/09 02:41:23;;;;;;;7.30;1.30;;;;;;;14.22;84.72;100038.41;108110;1276;22814;-78
2023/08/09 02:43:54;;;;;;;7.30;1.10;;;;;;;14.21;84.84;100043.26;108120;1276;22607;-78
2023/08/09 02:46:25;;;;;;;4.90;0.90;;;;;;;14.18;84.63;100044.67;108224;1276;22648;-78
2023/08/09 02:48:55;;;;;;;5.40;0.80;;;;;;;14.16;84.77;100048.09;108121;1276;22549;-79
2023/08/09 02:51:26;;;;;;;4.50;0.80;;;;;;;14.12;84.81;100048.80;108066;1276;25419;-79
2023/08/09 02:54:02;;;;;;;7.10;1.10;;;;;;;14.09;84.73;100055.43;108090;1276;22517;-79
2023/08/09 02:56:34;;;;;;;4.40;0.90;;;;;;;14.06;84.76;100053.60;108077;1276;22628;-79
2023/08/09 02:59:05;;;;;;;4.60;0.80;;;;;;;14.03;84.76;100056.24;108081;1269;24198;-78
2023/08/09 03:01:35;;;;;;;4.60;1.00;;;;;;;13.99;84.74;100057.52;108086;1276;22543;-78
2023/08/09 03:04:06;;;;;;;3.60;0.90;;;;;;;13.96;84.80;100059.64;108080;1265;23797;-78
2023/08/09 03:06:37;;;;;;;6.90;1.10;;;;;;;13.92;84.89;100060.24;108059;1276;24886;-78
2023/08/09 03:09:08;;;;;;;6.30;0.70;;;;;;;13.90;84.81;100064.02;108117;1276;22626;-78
2023/08/09 03:11:39;;;;;;;7.10;1.00;;;;;;;13.87;84.75;100062.59;108245;1276;25277;-79
2023/08/09 03:14:13;;;;;;;5.70;1.10;;;;;;;13.85;84.68;100060.68;108686;1276;22542;-80
2023/08/09 03:16:44;;;;;;;4.10;0.80;;;;;;;13.80;84.72;100059.55;109622;1276;22594;-81
2023/08/09 03:19:14;;;;;;;3.90;0.90;;;;;;;13.76;84.64;100059.53;109335;1272;23397;-81
2023/08/09 03:21:45;;;;;;;6.90;0.90;;;;;;;13.72;84.64;100062.53;108688;1276;22633;-81
2023/08/09 03:24:16;;;;;;;6.50;1.00;;;;;;;13.70;84.57;100058.15;108638;1276;22522;-80
2023/08/09 03:26:46;;;;;;;6.40;0.90;;;;;;;13.67;84.74;100052.98;108703;1276;25268;-81
2023/08/09 03:29:17;;;;;;;7.30;1.20;;;;;;;13.65;84.75;100058.69;108610;1276;22866;-80
2023/08/09 03:31:48;;;;;;;4.90;1.00;;;;;;;13.64;84.79;100063.22;108663;1276;22517;-81
2023/08/09 03:34:19;;;;;;;6.70;1.20;;;;;;;13.60;84.80;100072.54;108606;1276;22644;-80
2023/08/09 03:36:49;;;;;;;7.60;1.00;;;;;;;13.56;84.77;100077.52;108706;1276;22542;-80
2023/08/09 03:39:21;;;;;;;6.90;1.10;;;;;;;13.54;84.81;100077.05;108568;1276;23549;-81
2023/08/09 03:41:52;;;;;;;5.70;1.10;;;;;;;13.50;84.94;100077.95;108624;1276;23895;-80
2023/08/09 03:44:23;;;;;;;5.10;1.10;;;;;;;13.46;84.98;100080.28;108601;1276;24303;-80
2023/08/09 03:46:55;;;;;;;14.10;1.20;;;;;;;13.44;85.12;100085.67;108697;1276;22591;-81
2023/08/09 03:49:26;;;;;;;6.70;1.30;;;;;;;13.37;84.98;100084.77;108671;1272;22974;-80
2023/08/09 03:51:56;;;;;;;12.70;1.20;;;;;;;13.31;85.23;100084.84;108692;1269;22538;-80
2023/08/09 03:54:28;;;;;;;4.10;1.20;;;;;;;13.28;85.22;100078.05;108703;1272;22550;-80
2023/08/09 03:56:59;;;;;;;8.30;1.10;;;;;;;13.27;85.27;100074.06;108633;1272;22518;-79
2023/08/09 03:59:29;;;;;;;5.10;0.90;;;;;;;13.26;85.53;100068.52;108754;1272;22647;-79
2023/08/09 04:02:02;;;;;;;5.10;0.90;;;;;;;13.26;85.50;100063.72;108699;1276;23890;-78
2023/08/09 04:04:34;;;;;;;5.00;1.40;;;;;;;13.25;85.60;100054.17;108230;1276;22539;-78
2023/08/09 04:07:05;;;;;;;7.90;1.00;;;;;;;13.24;85.61;100050.70;108236;1276;22518;-78
2023/08/09 04:09:37;;;;;;;6.40;1.10;;;;;;;13.22;85.61;100048.04;108204;1276;22516;-78
2023/08/09 04:12:09;;;;;;;6.40;1.10;;;;;;;13.20;85.76;100041.05;108191;1276;22568;-78
2023/08/09 04:14:40;;;;;;;5.00;0.90;;;;;;;13.19;85.86;100032.79;108069;1276;22543;-78
2023/08/09 04:17:10;;;;;;;6.10;0.80;;;;;;;13.20;85.84;100027.39;108036;1273;22538;-78
2023/08/09 04:19:42;;;;;;;6.40;0.90;;;;;;;13.23;85.92;100027.80;108036;1276;26920;-81
2023/08/09 04:22:13;;;;;;;6.00;1.00;;;;;;;13.24;86.06;100023.73;108636;1272;25444;-80
2023/08/09 04:24:44;;;;;;;5.80;1.00;;;;;;;13.24;86.31;100024.09;108575;1276;26519;-81
2023/08/09 04:27:15;;;;;;;9.00;1.00;;;;;;;13.25;86.39;100021.41;108799;1273;25444;-82
2023/08/09 04:29:46;;;;;;;6.90;1.40;;;;;;;13.28;86.61;100019.12;108727;1276;22579;-81
2023/08/09 04:32:17;;;;;;;4.90;1.00;;;;;;;13.31;86.67;100020.92;108695;1269;22521;-81
2023/08/09 04:34:48;;;;;;;12.70;1.10;;;;;;;13.37;86.79;100022.38;108659;1276;22492;-81
2023/08/09 04:37:19;;;;;;;6.00;1.30;;;;;;;13.41;87.04;100020.55;108632;1276;22587;-81
2023/08/09 04:39:49;;;;;;;11.80;1.30;;;;;;;13.44;87.29;100019.95;108759;1274;22552;-81
2023/08/09 04:42:20;;;;;;;7.80;1.30;;;;;;;13.44;87.37;100016.99;108771;1272;22533;-83
2023/08/09 04:44:51;;;;;;;6.30;1.20;;;;;;;13.46;87.49;100020.11;108677;1269;22474;-80
2023/08/09 04:47:22;;;;;;;8.90;1.40;;;;;;;13.51;87.62;100021.82;108726;1269;22629;-80
2023/08/09 04:49:53;;;;;;;11.70;1.50;;;;;;;13.56;87.66;100025.10;108796;1276;23930;-80
2023/08/09 04:52:24;;;;;;;8.50;1.30;;;;;;;13.63;87.75;100022.98;108912;1270;22557;-80
2023/08/09 04:54:54;;;;;;;8.40;1.50;;;;;;;13.68;87.86;100021.83;108808;1274;23261;-81
2023/08/09 04:57:25;;;;;;;8.20;0.90;;;;;;;13.74;87.90;100019.49;108859;1270;22577;-79
2023/08/09 04:59:56;;;;;;;7.70;1.00;;;;;;;13.79;87.80;100021.90;108014;1269;22476;-79
2023/08/09 05:02:27;;;;;;;6.00;1.10;;;;;;;13.86;87.94;100020.13;108092;1276;22532;-79
2023/08/09 05:04:58;;;;;;;8.70;1.00;;;;;;;13.94;88.07;100020.96;110316;1269;23052;-79
2023/08/09 05:07:28;;;;;;;8.20;1.10;;;;;;;13.99;88.07;100026.69;110355;1276;22178;-80
2023/08/09 05:10:00;;;;;;;5.30;0.80;;;;;;;14.04;88.14;100028.44;110313;1276;22499;-80
2023/08/09 05:12:31;;;;;;;4.30;0.80;;;;;;;14.11;88.22;100028.59;110377;1273;22209;-80
2023/08/09 05:15:01;;;;;;;10.50;1.10;;;;;;;14.18;88.17;100027.68;110382;1276;22232;-80
2023/08/09 05:17:32;;;;;;;5.60;1.20;;;;;;;14.24;88.36;100030.20;110350;1276;22451;-80
2023/08/09 05:20:03;;;;;;;10.10;0.90;;;;;;;14.30;88.16;100027.98;110353;1273;22163;-80
2023/08/09 05:22:34;;;;;;;6.60;1.30;;;;;;;14.34;88.04;100033.23;110325;1276;22168;-80
2023/08/09 05:25:06;;;;;;;4.30;0.80;;;;;;;14.38;87.96;100035.34;109078;1276;22542;-80
2023/08/09 05:27:37;;;;;;;7.40;1.00;;;;;;;14.42;87.89;100041.26;108448;1276;23641;-80
2023/08/09 05:30:09;;;;;;;7.00;0.90;;;;;;;14.48;87.92;100042.99;108612;1276;22479;-80
2023/08/09 05:32:40;;;;;;;3.00;0.70;;;;;;;14.53;87.88;100041.20;108674;1276;22547;-79
2023/08/09 05:35:11;;;;;;;7.60;1.00;;;;;;;14.56;87.91;100036.14;108707;1276;23021;-80
2023/08/09 05:37:42;;;;;;;4.70;0.80;;;;;;;14.61;87.93;100032.73;108691;1276;22518;-80
2023/08/09 05:40:14;;;;;;;5.00;0.80;;;;;;;14.66;87.94;100031.85;108695;1276;23745;-80
2023/08/09 05:42:44;;;;;;;3.40;0.70;;;;;;;14.71;87.90;100032.61;108635;1276;23064;-80
2023/08/09 05:45:15;;;;;;;4.00;0.90;;;;;;;14.77;88.01;100031.28;108570;1273;22536;-80
2023/08/09 05:47:46;;;;;;;6.30;0.90;;;;;;;14.84;87.94;100034.13;108584;1269;26603;-80
2023/08/09 05:50:20;;;;;;;3.90;0.80;;;;;;;14.91;87.88;100035.23;108784;1267;24312;-80
2023/08/09 05:52:52;;;;;;;9.80;1.00;;;;;;;15.00;88.10;100038.08;108627;1270;22554;-80
2023/08/09 05:55:23;;;;;;;3.70;0.80;;;;;;;15.10;88.12;100035.20;108428;1269;22606;-80
2023/08/09 05:57:54;;;;;;;4.30;0.80;;;;;;;15.21;88.34;100037.52;108548;1253;22552;-80
2023/08/09 06:00:25;;;;;;;5.20;0.70;;;;;;;15.34;88.14;100034.72;108749;1269;25282;-83
2023/08/09 06:02:56;;;;;;;5.10;0.70;;;;;;;15.44;88.02;100040.62;108911;1269;23351;-83
2023/08/09 06:05:26;;;;;;;5.60;0.80;;;;;;;15.52;87.47;100041.63;108961;1269;22618;-83
2023/08/09 06:07:58;;;;;;;3.90;0.80;;;;;;;15.57;87.37;100046.88;108820;1275;22646;-83
2023/08/09 06:10:29;;;;;;;6.20;1.00;;;;;;;15.64;87.26;100050.94;108943;1272;23310;-84
2023/08/09 06:12:59;;;;;;;5.20;0.90;;;;;;;15.69;87.20;100052.14;108850;1270;23392;-84
2023/08/09 06:15:30;;;;;;;3.70;0.60;;;;;;;15.77;87.53;100050.77;108788;1276;22671;-83
2023/08/09 06:18:02;;;;;;;4.20;0.80;;;;;;;15.86;87.31;100050.46;108723;1273;23144;-83
2023/08/09 06:20:35;;;;;;;3.10;0.80;;;;;;;15.95;87.25;100047.70;108749;1267;22545;-83
2023/08/09 06:23:06;;;;;;;7.10;0.90;;;;;;;16.04;86.90;100057.27;108694;1273;22806;-83
2023/08/09 06:25:37;;;;;;;6.00;1.20;;;;;;;16.13;86.73;100057.64;108921;1272;24158;-84
2023/08/09 06:28:08;;;;;;;3.70;0.80;;;;;;;16.21;86.86;100061.42;108932;1257;25956;-82
2023/08/09 06:30:39;;;;;;;2.60;0.70;;;;;;;16.29;86.49;100056.91;108905;1272;22618;-83
2023/08/09 06:33:10;;;;;;;3.90;0.70;;;;;;;16.37;86.19;100061.05;108713;1276;22544;-83
2023/08/09 06:35:41;;;;;;;4.50;0.70;;;;;;;16.42;85.68;100064.61;108685;1276;24286;-83
2023/08/09 06:38:11;;;;;;;5.50;0.80;;;;;;;16.47;85.59;100064.20;108712;1276;23561;-83
2023/08/09 06:40:43;;;;;;;3.20;0.70;;;;;;;16.50;84.98;100070.61;108765;1276;22562;-83
2023/08/09 06:43:14;;;;;;;6.50;1.90;;;;;;;16.53;84.75;100071.72;108790;1277;22475;-83
2023/08/09 06:45:45;;;;;;;6.10;0.90;;;;;;;16.56;84.32;100076.00;108885;1272;22571;-83
2023/08/09 06:48:16;;;;;;;4.10;0.70;;;;;;;16.59;84.23;100080.39;108690;1277;22555;-83
2023/08/09 06:50:46;;;;;;;5.20;0.80;;;;;;;16.62;84.43;100078.16;108850;1272;22550;-83
2023/08/09 06:53:18;;;;;;;4.90;1.00;;;;;;;16.66;84.98;100074.89;109000;1271;22541;-84
2023/08/09 06:55:49;;;;;;;3.80;1.00;;;;;;;16.71;84.90;100081.96;109333;1276;22558;-83
2023/08/09 06:58:20;;;;;;;6.00;0.70;;;;;;;16.75;84.89;100084.14;109319;1276;22543;-83
2023/08/09 07:00:52;;;;;;;5.60;0.80;;;;;;;16.78;84.23;100086.02;108693;1270;22532;-83
2023/08/09 07:03:23;;;;;;;4.50;0.90;;;;;;;16.80;84.25;100084.97;108801;1272;22570;-84
2023/08/09 07:05:54;;;;;;;5.90;0.90;;;;;;;16.81;84.33;100085.73;109050;1270;22563;-83
2023/08/09 07:08:26;;;;;;;9.20;1.00;;;;;;;16.83;83.76;100090.06;109003;1272;23437;-85
2023/08/09 07:10:57;;;;;;;8.30;0.80;;;;;;;16.85;83.76;100093.48;108839;1277;23428;-83
2023/08/09 07:13:28;;;;;;;5.70;0.80;;;;;;;16.84;83.29;100098.05;108941;1277;22546;-83
2023/08/09 07:15:59;;;;;;;4.10;0.90;;;;;;;16.83;83.16;100104.00;108809;1277;22542;-83
2023/08/09 07:18:30;;;;;;;9.60;1.30;;;;;;;16.79;83.17;100110.66;108862;1276;22488;-83
2023/08/09 07:21:01;;;;;;;5.70;1.30;;;;;;;16.72;83.30;100110.40;108853;1272;22556;-83
2023/08/09 07:23:32;;;;;;;4.90;0.90;;;;;;;16.64;83.42;100112.78;108772;1277;23419;-83
2023/08/09 07:26:02;;;;;;;5.00;0.90;;;;;;;16.56;83.99;100119.15;108937;1275;22539;-84
2023/08/09 07:28:33;;;;;;;4.70;0.70;;;;;;;16.46;84.08;100120.77;108889;1277;22538;-83
2023/08/09 07:31:05;;;;;;;3.70;0.80;;;;;;;16.39;84.27;100123.08;108628;1277;22483;-81
2023/08/09 07:33:35;;;;;;;3.50;0.80;;;;;;;16.30;84.82;100124.91;108598;1277;22567;-81
2023/08/09 07:36:06;;;;;;;4.80;0.80;;;;;;;16.20;84.86;100126.10;108615;1277;22524;-82
2023/08/09 07:38:38;;;;;;;3.90;0.90;;;;;;;16.13;84.98;100128.75;108580;1277;22501;-83
2023/08/09 07:41:09;;;;;;;4.90;0.90;;;;;;;16.07;85.26;100128.83;108581;1277;22556;-82
2023/08/09 07:43:40;;;;;;;5.00;0.90;;;;;;;16.01;85.48;100133.06;108572;1277;24230;-82
2023/08/09 07:46:11;;;;;;;6.00;0.90;;;;;;;15.96;85.41;100132.31;108559;1277;22454;-81
2023/08/09 07:48:42;;;;;;;5.50;1.00;;;;;;;15.88;85.37;100138.80;108532;1277;22566;-81
2023/08/09 07:51:13;;;;;;;3.30;0.70;;;;;;;15.80;85.24;100135.66;108553;1267;22558;-81
2023/08/09 07:53:45;;;;;;;4.40;0.80;;;;;;;15.73;85.58;100136.98;108806;1271;24292;-81
2023/08/09 07:56:16;;;;;;;6.40;0.80;;;;;;;15.70;85.69;100134.16;108720;1274;24257;-81
2023/08/09 07:58:47;;;;;;;5.10;0.90;;;;;;;15.67;85.75;100134.43;108786;1277;24491;-81
2023/08/09 08:01:18;;;;;;;7.50;1.00;;;;;;;15.63;85.83;100134.49;108753;1273;24224;-81
2023/08/09 08:03:49;;;;;;;5.80;0.90;;;;;;;15.60;85.84;100139.11;108663;1272;23489;-82
2023/08/09 08:06:20;;;;;;;4.40;0.90;;;;;;;15.57;85.78;100135.74;108724;1270;22517;-81
2023/08/09 08:08:52;;;;;;;7.30;0.80;;;;;;;15.56;85.85;100140.40;108682;1272;25916;-81
2023/08/09 08:11:23;;;;;;;5.90;1.20;;;;;;;15.56;86.02;100137.18;108736;1272;23867;-81
2023/08/09 08:13:54;;;;;;;4.60;0.80;;;;;;;15.59;86.28;100135.38;108666;1270;22645;-82
2023/08/09 08:16:26;;;;;;;6.50;0.80;;;;;;;15.60;86.06;100136.59;108689;1276;23250;-81
2023/08/09 08:18:58;;;;;;;6.70;0.90;;;;;;;15.60;85.85;100137.88;108784;1276;22554;-82
2023/08/09 08:21:28;;;;;;;4.60;0.80;;;;;;;15.61;86.26;100137.83;108680;1276;24566;-82
2023/08/09 08:24:00;;;;;;;8.60;0.90;;;;;;;15.62;86.11;100141.40;108695;1269;22542;-81
2023/08/09 08:26:33;;;;;;;5.90;1.10;;;;;;;15.60;86.38;100142.89;108809;1275;22557;-81
2023/08/09 08:29:04;;;;;;;9.60;0.90;;;;;;;15.59;86.33;100141.57;108742;1276;23030;-81
2023/08/09 08:31:36;;;;;;;4.30;1.00;;;;;;;15.59;86.68;100142.89;108720;1273;22536;-81
2023/08/09 08:34:07;;;;;;;9.70;1.10;;;;;;;15.61;86.90;100142.78;108717;1265;24185;-79
2023/08/09 08:36:38;;;;;;;3.60;1.00;;;;;;;15.62;86.63;100143.61;108584;1272;25421;-82
2023/08/09 08:39:14;;;;;;;5.40;1.20;;;;;;;15.63;87.17;100148.27;108653;1275;22653;-82
2023/08/09 08:41:49;;;;;;;6.90;0.80;;;;;;;15.62;86.82;100152.40;108648;1272;24631;-81
2023/08/09 08:44:24;;;;;;;9.30;1.00;;;;;;;15.60;87.43;100153.64;108575;1276;22512;-81
2023/08/09 08:46:56;;;;;;;8.40;1.20;;;;;;;15.59;87.55;100143.71;108518;1268;22520;-81
2023/08/09 08:49:28;;;;;;;12.30;1.40;;;;;;;15.61;87.84;100140.48;108573;1276;22620;-81
2023/08/09 08:52:01;;;;;;;7.00;1.20;;;;;;;15.66;88.58;100141.45;108511;1273;22533;-81
2023/08/09 08:54:32;;;;;;;5.50;0.70;;;;;;;15.70;88.17;100143.69;108588;1276;23329;-81
2023/08/09 08:57:05;;;;;;;4.80;0.90;;;;;;;15.69;87.52;100140.00;108474;1269;23181;-81
2023/08/09 08:59:35;;;;;;;7.40;0.80;;;;;;;15.69;87.98;100144.14;108615;1275;23715;-81
2023/08/09 09:02:06;;;;;;;3.50;0.70;;;;;;;15.65;87.61;100145.90;108532;1269;24262;-81
2023/08/09 09:04:38;;;;;;;4.50;0.90;;;;;;;15.63;87.88;100140.08;108514;1276;22474;-81
2023/08/09 09:07:10;;;;;;;6.40;0.90;;;;;;;15.63;87.93;100141.09;108579;1276;22484;-81
2023/08/09 09:10:00;;;;;;;5.20;0.90;;;;;;;15.59;87.81;100146.16;108692;1276;22513;-81
2023/08/09 09:12:36;;;;;;;4.10;1.00;;;;;;;15.58;88.22;100143.98;108631;1276;25266;-81
2023/08/09 09:15:09;;;;;;;5.70;1.00;;;;;;;15.61;88.82;100142.06;108655;1276;25226;-81
2023/08/09 09:17:42;;;;;;;4.70;0.90;;;;;;;15.64;88.54;100139.31;108790;1269;22651;-81
2023/08/09 09:20:21;;;;;;;4.50;0.80;;;;;;;15.66;88.54;100137.88;108735;1269;25395;-81
2023/08/09 09:22:53;;;;;;;3.90;0.80;;;;;;;15.65;87.81;100130.91;108566;1276;22575;-82
2023/08/09 09:25:24;;;;;;;5.20;0.90;;;;;;;15.65;87.51;100126.05;108648;1272;22587;-81
2023/08/09 09:27:58;;;;;;;2.40;0.60;;;;;;;15.61;87.16;100126.20;108829;1276;24247;-82
2023/08/09 09:30:31;;;;;;;4.30;0.80;;;;;;;15.60;88.09;100123.77;108688;1276;23195;-81
2023/08/09 09:33:10;;;;;;;4.10;1.10;;;;;;;15.65;89.06;100117.52;108723;1276;25239;-82
2023/08/09 09:35:57;;;;;;;5.40;0.90;;;;;;;15.65;89.13;100116.21;108557;1276;25236;-82
2023/08/09 09:38:28;;;;;;;4.90;1.00;;;;;;;15.66;89.26;100114.17;108610;1267;22573;-83
2023/08/09 09:41:01;;;;;;;3.10;0.60;;;;;;;15.69;90.14;100105.77;108954;1276;24193;-84
2023/08/09 09:43:38;;;;;;;4.10;0.80;;;;;;;15.73;89.39;100111.64;108826;1274;22576;-82
2023/08/09 09:46:20;;;;;;;8.90;1.10;;;;;;;15.81;89.82;100112.38;108896;1276;25955;-81
2023/08/09 09:49:05;;;;;;;2.70;0.50;;;;;;;15.85;89.19;100117.48;108677;1270;22536;-81
2023/08/09 09:51:36;;;;;;;5.40;0.70;;;;;;;15.92;89.72;100110.73;108521;1276;22664;-81
2023/08/09 09:54:09;;;;;;;2.10;0.60;;;;;;;16.00;90.31;100100.00;108693;1276;23949;-82
2023/08/09 09:56:40;;;;;;;4.10;0.70;;;;;;;16.03;89.66;100096.97;108934;1276;22621;-83
2023/08/09 09:59:12;;;;;;;4.80;1.10;;;;;;;16.01;89.98;100092.78;108884;1276;25599;-83
2023/08/09 10:01:47;;;;;;;3.80;0.80;;;;;;;16.01;90.02;100092.20;108913;1276;22462;-84
2023/08/09 10:04:21;;;;;;;4.70;1.10;;;;;;;16.07;90.79;100090.69;109073;1257;22564;-84
2023/08/09 10:06:52;;;;;;;5.80;1.10;;;;;;;16.11;91.28;100081.61;109076;1270;22539;-84
2023/08/09 10:09:25;;;;;;;4.50;0.90;;;;;;;16.14;91.33;100076.98;109016;1272;22550;-83
2023/08/09 10:12:00;;;;;;;4.10;1.30;;;;;;;16.18;91.69;100082.74;108903;1276;24202;-83
2023/08/09 10:14:55;;;;;;;5.10;1.20;;;;;;;16.20;91.20;100083.70;108850;1253;22559;-83
2023/08/09 10:17:30;;;;;;;6.10;1.00;;;;;;;16.17;90.51;100080.34;108871;1276;23465;-83
2023/08/09 10:20:05;;;;;;;4.90;0.90;;;;;;;16.15;90.81;100082.75;108944;1276;23036;-83
2023/08/09 10:22:36;;;;;;;5.00;1.10;;;;;;;16.13;91.13;100082.97;108817;1276;22596;-83
2023/08/09 10:25:09;;;;;;;4.80;1.00;;;;;;;16.09;91.18;100083.72;108902;1276;22483;-82
2023/08/09 10:27:53;;;;;;;4.80;1.30;;;;;;;16.07;91.45;100083.67;108868;1276;22903;-82
2023/08/09 10:30:30;;;;;;;7.00;1.30;;;;;;;16.08;91.53;100084.23;108756;1276;23321;-81
2023/08/09 10:33:02;;;;;;;7.40;1.00;;;;;;;16.08;91.49;100079.21;108889;1276;25440;-82
2023/08/09 10:35:54;;;;;;;5.10;1.00;;;;;;;16.09;91.37;100076.86;109221;1276;23470;-82
2023/08/09 10:38:45;;;;;;;6.20;1.30;;;;;;;16.06;91.39;100074.83;109269;1267;23494;-82
2023/08/09 10:41:16;;;;;;;5.10;1.00;;;;;;;16.04;91.61;100073.83;108970;1277;22486;-82
2023/08/09 10:43:48;;;;;;;7.60;1.30;;;;;;;16.02;91.53;100075.05;108665;1265;24215;-82
2023/08/09 10:46:28;;;;;;;7.10;1.10;;;;;;;15.99;91.31;100080.18;108701;1276;22530;-82
2023/08/09 10:49:03;;;;;;;4.30;1.00;;;;;;;16.01;92.14;100087.15;108767;1277;23248;-82
2023/08/09 10:51:34;;;;;;;8.30;1.50;;;;;;;16.02;91.81;100082.33;108861;1276;22529;-82
2023/08/09 10:54:08;;;;;;;6.50;2.20;;;;;;;16.00;91.73;100077.88;108893;1269;22501;-82
2023/08/09 10:56:47;;;;;;;5.20;1.30;;;;;;;16.01;92.02;100082.54;108838;1266;23279;-82
2023/08/09 10:59:24;;;;;;;9.50;1.70;;;;;;;16.00;91.89;100085.40;108697;1277;25230;-82
2023/08/09 11:01:55;;;;;;;3.80;1.20;;;;;;;15.99;91.84;100088.63;108823;1277;25398;-82
2023/08/09 11:04:26;;;;;;;6.20;1.40;;;;;;;16.01;92.20;100087.14;108685;1277;23237;-82
2023/08/09 11:06:58;;;;;;;3.20;0.90;;;;;;;16.03;92.36;100082.11;108645;1276;22721;-83
2023/08/09 11:09:29;;;;;;;12.70;2.20;;;;;;;16.03;92.08;100086.83;108385;1277;22663;-82
2023/08/09 11:12:00;;;;;;;8.30;1.60;;;;;;;16.04;92.36;100087.65;108668;1277;22537;-82
2023/08/09 11:14:33;;;;;;;7.60;2.10;;;;;;;16.09;92.72;100079.88;108726;1277;22612;-83
2023/08/09 11:17:03;;;;;;;6.40;1.40;;;;;;;16.15;93.04;100079.73;108552;1277;22540;-82
2023/08/09 11:19:35;;;;;;;7.30;1.30;;;;;;;16.18;93.01;100080.79;108466;1277;24180;-80
2023/08/09 11:22:07;;;;;;;6.70;1.20;;;;;;;16.19;92.43;100079.86;108625;1277;23301;-80
2023/08/09 11:24:38;;;;;;;4.10;1.10;;;;;;;16.18;92.25;100082.54;108662;1277;22540;-80
2023/08/09 11:27:12;;;;;;;9.00;1.60;;;;;;;16.19;92.51;100076.38;108663;1277;23215;-81
2023/08/09 11:29:43;;;;;;;6.30;1.40;;;;;;;16.16;91.76;100077.73;108671;1277;23080;-81
2023/08/09 11:32:13;;;;;;;7.30;1.20;;;;;;;16.19;92.23;100077.51;108845;1277;23353;-81
2023/08/09 11:34:44;;;;;;;9.40;1.60;;;;;;;16.21;92.13;100077.86;108672;1275;22554;-80
2023/08/09 11:37:15;;;;;;;6.90;1.40;;;;;;;16.21;92.39;100077.15;108664;1277;22513;-80
2023/08/09 11:39:46;;;;;;;7.20;1.10;;;;;;;16.21;92.62;100076.33;108575;1277;22557;-81